sensor_id;sensor_type;location;lat;lon;timestamp;temperature;humidity
14142;DHT22;7151;52.246;4.820;2023-07-13T00:00:24;24.00;61.10
14142;DHT22;7151;52.246;4.820;2023-07-13T00:02:50;24.00;61.20
14142;DHT22;7151;52.246;4.820;2023-07-13T00:05:20;24.00;61.30
14142;DHT22;7151;52.246;4.820;2023-07-13T00:07:45;23.90;61.40
14142;DHT22;7151;52.246;4.820;2023-07-13T00:10:12;23.90;61.50
14142;DHT22;7151;52.246;4.820;2023-07-13T00:12:38;23.90;61.70
14142;DHT22;7151;52.246;4.820;2023-07-13T00:15:13;23.90;61.80
14142;DHT22;7151;52.246;4.820;2023-07-13T00:17:39;23.90;62.10
14142;DHT22;7151;52.246;4.820;2023-07-13T00:20:06;23.90;62.10
14142;DHT22;7151;52.246;4.820;2023-07-13T00:22:32;23.80;62.10
14142;DHT22;7151;52.246;4.820;2023-07-13T00:24:58;23.80;62.30
14142;DHT22;7151;52.246;4.820;2023-07-13T00:27:24;23.80;62.50
14142;DHT22;7151;52.246;4.820;2023-07-13T00:29:51;23.80;62.50
14142;DHT22;7151;52.246;4.820;2023-07-13T00:32:18;23.80;62.60
14142;DHT22;7151;52.246;4.820;2023-07-13T00:34:43;23.80;62.70
14142;DHT22;7151;52.246;4.820;2023-07-13T00:37:09;23.80;62.90
14142;DHT22;7151;52.246;4.820;2023-07-13T00:39:35;23.80;62.90
14142;DHT22;7151;52.246;4.820;2023-07-13T00:42:02;23.80;63.00
14142;DHT22;7151;52.246;4.820;2023-07-13T00:44:28;23.80;63.20
14142;DHT22;7151;52.246;4.820;2023-07-13T00:46:54;23.70;63.20
14142;DHT22;7151;52.246;4.820;2023-07-13T00:49:23;23.70;63.10
14142;DHT22;7151;52.246;4.820;2023-07-13T00:52:04;23.70;63.10
14142;DHT22;7151;52.246;4.820;2023-07-13T00:54:35;23.70;62.90
14142;DHT22;7151;52.246;4.820;2023-07-13T00:57:04;23.70;62.70
14142;DHT22;7151;52.246;4.820;2023-07-13T00:59:31;23.70;62.60
14142;DHT22;7151;52.246;4.820;2023-07-13T01:01:59;23.70;62.50
14142;DHT22;7151;52.246;4.820;2023-07-13T01:04:25;23.70;62.50
14142;DHT22;7151;52.246;4.820;2023-07-13T01:06:51;23.70;62.50
14142;DHT22;7151;52.246;4.820;2023-07-13T01:09:17;23.70;62.50
14142;DHT22;7151;52.246;4.820;2023-07-13T01:11:43;23.60;62.50
14142;DHT22;7151;52.246;4.820;2023-07-13T01:14:10;23.60;62.50
14142;DHT22;7151;52.246;4.820;2023-07-13T01:16:37;23.60;62.50
14142;DHT22;7151;52.246;4.820;2023-07-13T01:19:11;23.60;62.50
14142;DHT22;7151;52.246;4.820;2023-07-13T01:21:38;23.60;62.50
14142;DHT22;7151;52.246;4.820;2023-07-13T01:24:08;23.60;62.50
14142;DHT22;7151;52.246;4.820;2023-07-13T01:26:34;23.60;62.50
14142;DHT22;7151;52.246;4.820;2023-07-13T01:29:00;23.60;62.70
14142;DHT22;7151;52.246;4.820;2023-07-13T01:31:28;23.60;62.70
14142;DHT22;7151;52.246;4.820;2023-07-13T01:33:55;23.60;62.60
14142;DHT22;7151;52.246;4.820;2023-07-13T01:36:22;23.50;62.50
14142;DHT22;7151;52.246;4.820;2023-07-13T01:38:47;23.50;62.50
14142;DHT22;7151;52.246;4.820;2023-07-13T01:41:13;23.50;62.50
14142;DHT22;7151;52.246;4.820;2023-07-13T01:43:38;23.50;62.60
14142;DHT22;7151;52.246;4.820;2023-07-13T01:46:04;23.50;62.50
14142;DHT22;7151;52.246;4.820;2023-07-13T01:48:30;23.50;62.50
14142;DHT22;7151;52.246;4.820;2023-07-13T01:50:55;23.40;62.40
14142;DHT22;7151;52.246;4.820;2023-07-13T01:53:21;23.40;62.40
14142;DHT22;7151;52.246;4.820;2023-07-13T01:55:46;23.40;62.40
14142;DHT22;7151;52.246;4.820;2023-07-13T01:58:12;23.40;62.30
14142;DHT22;7151;52.246;4.820;2023-07-13T02:00:37;23.40;62.30
14142;DHT22;7151;52.246;4.820;2023-07-13T02:03:03;23.40;62.20
14142;DHT22;7151;52.246;4.820;2023-07-13T02:05:29;23.30;62.10
14142;DHT22;7151;52.246;4.820;2023-07-13T02:07:54;23.30;62.00
14142;DHT22;7151;52.246;4.820;2023-07-13T02:10:20;23.30;61.90
14142;DHT22;7151;52.246;4.820;2023-07-13T02:12:47;23.20;61.90
14142;DHT22;7151;52.246;4.820;2023-07-13T02:15:13;23.20;61.90
14142;DHT22;7151;52.246;4.820;2023-07-13T02:17:39;23.20;61.90
14142;DHT22;7151;52.246;4.820;2023-07-13T02:20:05;23.20;61.90
14142;DHT22;7151;52.246;4.820;2023-07-13T02:22:31;23.20;61.90
14142;DHT22;7151;52.246;4.820;2023-07-13T02:24:57;23.20;61.80
14142;DHT22;7151;52.246;4.820;2023-07-13T02:27:22;23.10;61.70
14142;DHT22;7151;52.246;4.820;2023-07-13T02:29:48;23.10;61.60
14142;DHT22;7151;52.246;4.820;2023-07-13T02:32:17;23.10;61.70
14142;DHT22;7151;52.246;4.820;2023-07-13T02:34:42;23.10;61.60
14142;DHT22;7151;52.246;4.820;2023-07-13T02:37:08;23.00;61.50
14142;DHT22;7151;52.246;4.820;2023-07-13T02:39:33;23.10;61.50
14142;DHT22;7151;52.246;4.820;2023-07-13T02:42:00;23.00;61.50
14142;DHT22;7151;52.246;4.820;2023-07-13T02:44:26;23.00;61.50
14142;DHT22;7151;52.246;4.820;2023-07-13T02:46:52;23.00;61.60
14142;DHT22;7151;52.246;4.820;2023-07-13T02:49:17;22.90;61.70
14142;DHT22;7151;52.246;4.820;2023-07-13T02:51:43;22.90;61.70
14142;DHT22;7151;52.246;4.820;2023-07-13T02:54:09;22.90;61.70
14142;DHT22;7151;52.246;4.820;2023-07-13T02:56:36;22.90;61.80
14142;DHT22;7151;52.246;4.820;2023-07-13T02:59:04;22.90;61.90
14142;DHT22;7151;52.246;4.820;2023-07-13T03:01:29;22.90;62.00
14142;DHT22;7151;52.246;4.820;2023-07-13T03:03:55;22.90;62.00
14142;DHT22;7151;52.246;4.820;2023-07-13T03:06:21;22.90;62.10
14142;DHT22;7151;52.246;4.820;2023-07-13T03:08:47;22.80;62.20
14142;DHT22;7151;52.246;4.820;2023-07-13T03:11:17;22.80;62.30
14142;DHT22;7151;52.246;4.820;2023-07-13T03:13:42;22.80;62.30
14142;DHT22;7151;52.246;4.820;2023-07-13T03:16:09;22.80;62.40
14142;DHT22;7151;52.246;4.820;2023-07-13T03:18:36;22.80;62.50
14142;DHT22;7151;52.246;4.820;2023-07-13T03:21:02;22.70;62.60
14142;DHT22;7151;52.246;4.820;2023-07-13T03:23:28;22.70;62.70
14142;DHT22;7151;52.246;4.820;2023-07-13T03:26:13;22.70;62.80
14142;DHT22;7151;52.246;4.820;2023-07-13T03:28:39;22.70;63.00
14142;DHT22;7151;52.246;4.820;2023-07-13T03:31:17;22.70;63.00
14142;DHT22;7151;52.246;4.820;2023-07-13T03:33:44;22.70;63.20
14142;DHT22;7151;52.246;4.820;2023-07-13T03:36:18;22.60;63.20
14142;DHT22;7151;52.246;4.820;2023-07-13T03:38:48;22.60;63.40
14142;DHT22;7151;52.246;4.820;2023-07-13T03:41:15;22.70;63.40
14142;DHT22;7151;52.246;4.820;2023-07-13T03:43:40;22.60;63.50
14142;DHT22;7151;52.246;4.820;2023-07-13T03:46:07;22.60;63.60
14142;DHT22;7151;52.246;4.820;2023-07-13T03:48:32;22.60;63.80
14142;DHT22;7151;52.246;4.820;2023-07-13T03:50:58;22.60;63.90
14142;DHT22;7151;52.246;4.820;2023-07-13T03:53:23;22.60;63.90
14142;DHT22;7151;52.246;4.820;2023-07-13T03:55:49;22.50;64.00
14142;DHT22;7151;52.246;4.820;2023-07-13T03:58:30;22.50;64.10
14142;DHT22;7151;52.246;4.820;2023-07-13T04:00:57;22.50;64.40
14142;DHT22;7151;52.246;4.820;2023-07-13T04:03:24;22.50;64.40
14142;DHT22;7151;52.246;4.820;2023-07-13T04:05:49;22.50;64.50
14142;DHT22;7151;52.246;4.820;2023-07-13T04:08:15;22.40;64.60
14142;DHT22;7151;52.246;4.820;2023-07-13T04:10:42;22.40;64.80
14142;DHT22;7151;52.246;4.820;2023-07-13T04:13:08;22.40;64.90
14142;DHT22;7151;52.246;4.820;2023-07-13T04:15:33;22.40;65.00
14142;DHT22;7151;52.246;4.820;2023-07-13T04:17:59;22.40;65.00
14142;DHT22;7151;52.246;4.820;2023-07-13T04:20:25;22.40;65.20
14142;DHT22;7151;52.246;4.820;2023-07-13T04:22:52;22.40;65.40
14142;DHT22;7151;52.246;4.820;2023-07-13T04:25:18;22.40;65.50
14142;DHT22;7151;52.246;4.820;2023-07-13T04:27:44;22.40;65.60
14142;DHT22;7151;52.246;4.820;2023-07-13T04:30:10;22.40;65.80
14142;DHT22;7151;52.246;4.820;2023-07-13T04:32:35;22.40;65.90
14142;DHT22;7151;52.246;4.820;2023-07-13T04:35:01;22.30;65.90
14142;DHT22;7151;52.246;4.820;2023-07-13T04:37:27;22.40;66.10
14142;DHT22;7151;52.246;4.820;2023-07-13T04:39:52;22.40;66.20
14142;DHT22;7151;52.246;4.820;2023-07-13T04:42:18;22.30;66.30
14142;DHT22;7151;52.246;4.820;2023-07-13T04:44:53;22.40;66.50
14142;DHT22;7151;52.246;4.820;2023-07-13T04:47:19;22.40;66.70
14142;DHT22;7151;52.246;4.820;2023-07-13T04:49:45;22.30;66.40
14142;DHT22;7151;52.246;4.820;2023-07-13T04:52:11;22.30;66.50
14142;DHT22;7151;52.246;4.820;2023-07-13T04:54:37;22.30;66.60
14142;DHT22;7151;52.246;4.820;2023-07-13T04:57:06;22.30;66.70
14142;DHT22;7151;52.246;4.820;2023-07-13T04:59:32;22.30;66.80
14142;DHT22;7151;52.246;4.820;2023-07-13T05:01:58;22.30;66.90
14142;DHT22;7151;52.246;4.820;2023-07-13T05:04:23;22.30;67.10
14142;DHT22;7151;52.246;4.820;2023-07-13T05:06:49;22.30;67.30
14142;DHT22;7151;52.246;4.820;2023-07-13T05:09:15;22.30;67.40
14142;DHT22;7151;52.246;4.820;2023-07-13T05:11:40;22.30;67.50
14142;DHT22;7151;52.246;4.820;2023-07-13T05:14:06;22.30;67.70
14142;DHT22;7151;52.246;4.820;2023-07-13T05:16:31;22.30;67.90
14142;DHT22;7151;52.246;4.820;2023-07-13T05:18:57;22.30;68.10
14142;DHT22;7151;52.246;4.820;2023-07-13T05:21:23;22.30;68.30
14142;DHT22;7151;52.246;4.820;2023-07-13T05:23:49;22.30;68.60
14142;DHT22;7151;52.246;4.820;2023-07-13T05:26:15;22.30;68.60
14142;DHT22;7151;52.246;4.820;2023-07-13T05:28:41;22.30;68.80
14142;DHT22;7151;52.246;4.820;2023-07-13T05:31:09;22.30;69.00
14142;DHT22;7151;52.246;4.820;2023-07-13T05:33:37;22.30;69.20
14142;DHT22;7151;52.246;4.820;2023-07-13T05:36:02;22.40;69.50
14142;DHT22;7151;52.246;4.820;2023-07-13T05:38:28;22.40;69.60
14142;DHT22;7151;52.246;4.820;2023-07-13T05:40:55;22.40;69.60
14142;DHT22;7151;52.246;4.820;2023-07-13T05:43:22;22.50;69.70
14142;DHT22;7151;52.246;4.820;2023-07-13T05:45:48;22.50;69.80
14142;DHT22;7151;52.246;4.820;2023-07-13T05:48:16;22.50;69.90
14142;DHT22;7151;52.246;4.820;2023-07-13T05:50:42;22.50;70.60
14142;DHT22;7151;52.246;4.820;2023-07-13T05:53:07;22.60;70.00
14142;DHT22;7151;52.246;4.820;2023-07-13T05:55:33;22.60;70.00
14142;DHT22;7151;52.246;4.820;2023-07-13T05:58:00;22.60;70.00
14142;DHT22;7151;52.246;4.820;2023-07-13T06:00:26;22.60;69.90
14142;DHT22;7151;52.246;4.820;2023-07-13T06:02:52;22.60;69.70
14142;DHT22;7151;52.246;4.820;2023-07-13T06:05:18;22.60;69.60
14142;DHT22;7151;52.246;4.820;2023-07-13T06:07:44;22.70;69.70
14142;DHT22;7151;52.246;4.820;2023-07-13T06:10:09;22.70;69.70
14142;DHT22;7151;52.246;4.820;2023-07-13T06:12:35;22.70;69.80
14142;DHT22;7151;52.246;4.820;2023-07-13T06:15:01;22.70;69.80
14142;DHT22;7151;52.246;4.820;2023-07-13T06:17:26;22.70;69.70
14142;DHT22;7151;52.246;4.820;2023-07-13T06:19:52;22.70;69.60
14142;DHT22;7151;52.246;4.820;2023-07-13T06:22:17;22.80;69.60
14142;DHT22;7151;52.246;4.820;2023-07-13T06:24:43;22.80;69.50
14142;DHT22;7151;52.246;4.820;2023-07-13T06:27:09;22.80;69.50
14142;DHT22;7151;52.246;4.820;2023-07-13T06:29:34;22.90;69.40
14142;DHT22;7151;52.246;4.820;2023-07-13T06:32:00;22.90;69.30
14142;DHT22;7151;52.246;4.820;2023-07-13T06:34:26;22.90;69.40
14142;DHT22;7151;52.246;4.820;2023-07-13T06:36:51;22.90;69.30
14142;DHT22;7151;52.246;4.820;2023-07-13T06:39:17;22.90;69.40
14142;DHT22;7151;52.246;4.820;2023-07-13T06:41:42;22.90;69.40
14142;DHT22;7151;52.246;4.820;2023-07-13T06:44:08;22.90;69.30
14142;DHT22;7151;52.246;4.820;2023-07-13T06:46:34;22.90;69.20
14142;DHT22;7151;52.246;4.820;2023-07-13T06:48:59;22.80;69.10
14142;DHT22;7151;52.246;4.820;2023-07-13T06:51:25;22.80;69.10
14142;DHT22;7151;52.246;4.820;2023-07-13T06:53:51;22.80;69.90
14142;DHT22;7151;52.246;4.820;2023-07-13T06:56:17;22.80;69.20
14142;DHT22;7151;52.246;4.820;2023-07-13T06:58:42;22.80;69.30
14142;DHT22;7151;52.246;4.820;2023-07-13T07:01:08;22.80;69.40
14142;DHT22;7151;52.246;4.820;2023-07-13T07:03:34;22.80;69.40
14142;DHT22;7151;52.246;4.820;2023-07-13T07:06:12;22.80;69.40
14142;DHT22;7151;52.246;4.820;2023-07-13T07:08:39;22.80;69.60
14142;DHT22;7151;52.246;4.820;2023-07-13T07:11:05;22.80;69.50
14142;DHT22;7151;52.246;4.820;2023-07-13T07:13:31;22.80;69.70
14142;DHT22;7151;52.246;4.820;2023-07-13T07:15:56;22.80;69.90
14142;DHT22;7151;52.246;4.820;2023-07-13T07:18:22;22.90;69.90
14142;DHT22;7151;52.246;4.820;2023-07-13T07:20:49;22.90;69.60
14142;DHT22;7151;52.246;4.820;2023-07-13T07:23:14;22.90;69.60
14142;DHT22;7151;52.246;4.820;2023-07-13T07:25:40;22.90;69.40
14142;DHT22;7151;52.246;4.820;2023-07-13T07:28:08;23.00;69.50
14142;DHT22;7151;52.246;4.820;2023-07-13T07:30:33;23.00;69.30
14142;DHT22;7151;52.246;4.820;2023-07-13T07:32:59;23.00;69.20
14142;DHT22;7151;52.246;4.820;2023-07-13T07:35:24;23.10;69.30
14142;DHT22;7151;52.246;4.820;2023-07-13T07:37:50;23.10;69.20
14142;DHT22;7151;52.246;4.820;2023-07-13T07:40:16;23.10;68.90
14142;DHT22;7151;52.246;4.820;2023-07-13T07:42:41;23.10;68.60
14142;DHT22;7151;52.246;4.820;2023-07-13T07:45:07;23.10;68.60
14142;DHT22;7151;52.246;4.820;2023-07-13T07:47:33;23.20;68.40
14142;DHT22;7151;52.246;4.820;2023-07-13T07:50:00;23.20;68.30
14142;DHT22;7151;52.246;4.820;2023-07-13T07:52:25;23.20;68.10
14142;DHT22;7151;52.246;4.820;2023-07-13T07:54:51;23.20;68.10
14142;DHT22;7151;52.246;4.820;2023-07-13T07:57:16;23.20;68.60
14142;DHT22;7151;52.246;4.820;2023-07-13T07:59:42;23.20;67.70
14142;DHT22;7151;52.246;4.820;2023-07-13T08:02:10;23.30;67.50
14142;DHT22;7151;52.246;4.820;2023-07-13T08:04:36;23.30;67.20
14142;DHT22;7151;52.246;4.820;2023-07-13T08:07:01;23.30;67.10
14142;DHT22;7151;52.246;4.820;2023-07-13T08:09:28;23.30;67.00
14142;DHT22;7151;52.246;4.820;2023-07-13T08:11:54;23.30;66.90
14142;DHT22;7151;52.246;4.820;2023-07-13T08:14:20;23.30;66.90
14142;DHT22;7151;52.246;4.820;2023-07-13T08:16:46;23.30;66.90
14142;DHT22;7151;52.246;4.820;2023-07-13T08:19:12;23.30;66.80
14142;DHT22;7151;52.246;4.820;2023-07-13T08:21:37;23.40;66.80
14142;DHT22;7151;52.246;4.820;2023-07-13T08:24:03;23.40;66.90
14142;DHT22;7151;52.246;4.820;2023-07-13T08:26:29;23.40;66.90
14142;DHT22;7151;52.246;4.820;2023-07-13T08:28:54;23.50;66.90
14142;DHT22;7151;52.246;4.820;2023-07-13T08:31:20;23.50;66.80
14142;DHT22;7151;52.246;4.820;2023-07-13T08:33:45;23.50;66.50
14142;DHT22;7151;52.246;4.820;2023-07-13T08:36:11;23.60;66.40
14142;DHT22;7151;52.246;4.820;2023-07-13T08:38:37;23.60;66.30
14142;DHT22;7151;52.246;4.820;2023-07-13T08:41:15;23.60;66.10
14142;DHT22;7151;52.246;4.820;2023-07-13T08:43:42;23.70;66.00
14142;DHT22;7151;52.246;4.820;2023-07-13T08:46:35;23.70;66.00
14142;DHT22;7151;52.246;4.820;2023-07-13T08:49:09;23.70;65.80
14142;DHT22;7151;52.246;4.820;2023-07-13T08:51:40;23.70;65.40
14142;DHT22;7151;52.246;4.820;2023-07-13T08:54:19;23.70;65.30
14142;DHT22;7151;52.246;4.820;2023-07-13T08:56:46;23.70;65.50
14142;DHT22;7151;52.246;4.820;2023-07-13T08:59:18;23.70;65.80
14142;DHT22;7151;52.246;4.820;2023-07-13T09:04:19;23.70;65.50
14142;DHT22;7151;52.246;4.820;2023-07-13T09:06:50;23.80;65.40
14142;DHT22;7151;52.246;4.820;2023-07-13T09:09:27;23.80;65.20
14142;DHT22;7151;52.246;4.820;2023-07-13T09:14:50;23.90;64.70
14142;DHT22;7151;52.246;4.820;2023-07-13T09:17:48;23.90;64.50
14142;DHT22;7151;52.246;4.820;2023-07-13T09:20:25;23.90;64.40
14142;DHT22;7151;52.246;4.820;2023-07-13T09:22:52;23.90;64.60
14142;DHT22;7151;52.246;4.820;2023-07-13T09:25:32;24.00;64.70
14142;DHT22;7151;52.246;4.820;2023-07-13T09:28:18;24.00;64.60
14142;DHT22;7151;52.246;4.820;2023-07-13T09:30:59;24.00;64.50
14142;DHT22;7151;52.246;4.820;2023-07-13T09:33:26;24.00;64.70
14142;DHT22;7151;52.246;4.820;2023-07-13T09:35:55;24.10;64.70
14142;DHT22;7151;52.246;4.820;2023-07-13T09:38:24;24.10;64.60
14142;DHT22;7151;52.246;4.820;2023-07-13T09:41:23;24.10;64.60
14142;DHT22;7151;52.246;4.820;2023-07-13T09:44:14;24.10;64.10
14142;DHT22;7151;52.246;4.820;2023-07-13T09:46:51;24.10;64.00
14142;DHT22;7151;52.246;4.820;2023-07-13T09:49:18;24.20;63.90
14142;DHT22;7151;52.246;4.820;2023-07-13T09:51:44;24.20;63.90
14142;DHT22;7151;52.246;4.820;2023-07-13T09:54:21;24.20;63.80
14142;DHT22;7151;52.246;4.820;2023-07-13T09:56:46;24.20;64.00
14142;DHT22;7151;52.246;4.820;2023-07-13T09:59:19;24.20;64.10
14142;DHT22;7151;52.246;4.820;2023-07-13T10:01:46;24.30;64.30
14142;DHT22;7151;52.246;4.820;2023-07-13T10:04:16;24.30;64.30
14142;DHT22;7151;52.246;4.820;2023-07-13T10:06:44;24.30;64.20
14142;DHT22;7151;52.246;4.820;2023-07-13T10:09:13;24.40;64.00
14142;DHT22;7151;52.246;4.820;2023-07-13T10:11:40;24.40;63.80
14142;DHT22;7151;52.246;4.820;2023-07-13T10:14:20;24.40;63.50
14142;DHT22;7151;52.246;4.820;2023-07-13T10:16:50;24.50;63.70
14142;DHT22;7151;52.246;4.820;2023-07-13T10:19:23;24.50;63.70
14142;DHT22;7151;52.246;4.820;2023-07-13T10:21:56;24.50;63.70
14142;DHT22;7151;52.246;4.820;2023-07-13T10:24:35;24.60;63.60
14142;DHT22;7151;52.246;4.820;2023-07-13T10:27:13;24.60;63.50
14142;DHT22;7151;52.246;4.820;2023-07-13T10:29:52;24.60;63.30
14142;DHT22;7151;52.246;4.820;2023-07-13T10:32:21;24.70;63.30
14142;DHT22;7151;52.246;4.820;2023-07-13T10:34:49;24.70;63.10
14142;DHT22;7151;52.246;4.820;2023-07-13T10:37:31;24.80;62.80
14142;DHT22;7151;52.246;4.820;2023-07-13T10:40:00;24.80;62.60
14142;DHT22;7151;52.246;4.820;2023-07-13T10:42:38;24.80;62.50
14142;DHT22;7151;52.246;4.820;2023-07-13T10:45:20;24.80;62.50
14142;DHT22;7151;52.246;4.820;2023-07-13T10:47:47;24.80;62.10
14142;DHT22;7151;52.246;4.820;2023-07-13T10:50:24;24.90;62.10
14142;DHT22;7151;52.246;4.820;2023-07-13T10:52:53;24.90;61.70
14142;DHT22;7151;52.246;4.820;2023-07-13T10:55:40;24.90;61.50
14142;DHT22;7151;52.246;4.820;2023-07-13T10:58:29;25.00;61.20
14142;DHT22;7151;52.246;4.820;2023-07-13T11:03:34;25.10;61.00
14142;DHT22;7151;52.246;4.820;2023-07-13T11:06:18;25.10;60.70
14142;DHT22;7151;52.246;4.820;2023-07-13T11:08:58;25.10;60.60
14142;DHT22;7151;52.246;4.820;2023-07-13T11:29:48;25.50;59.60
14142;DHT22;7151;52.246;4.820;2023-07-13T11:32:25;25.50;59.60
14142;DHT22;7151;52.246;4.820;2023-07-13T11:34:55;25.50;59.50
14142;DHT22;7151;52.246;4.820;2023-07-13T11:37:22;25.50;59.60
14142;DHT22;7151;52.246;4.820;2023-07-13T11:39:50;25.50;59.60
14142;DHT22;7151;52.246;4.820;2023-07-13T11:42:18;25.50;59.50
14142;DHT22;7151;52.246;4.820;2023-07-13T11:44:47;25.60;59.60
14142;DHT22;7151;52.246;4.820;2023-07-13T11:47:23;25.60;59.70
14142;DHT22;7151;52.246;4.820;2023-07-13T11:49:53;25.70;59.60
14142;DHT22;7151;52.246;4.820;2023-07-13T11:52:35;25.70;59.60
14142;DHT22;7151;52.246;4.820;2023-07-13T11:55:04;25.70;59.40
14142;DHT22;7151;52.246;4.820;2023-07-13T12:00:35;25.70;59.60
14142;DHT22;7151;52.246;4.820;2023-07-13T12:03:03;25.70;59.50
14142;DHT22;7151;52.246;4.820;2023-07-13T12:05:30;25.80;59.40
14142;DHT22;7151;52.246;4.820;2023-07-13T12:07:57;25.80;59.40
14142;DHT22;7151;52.246;4.820;2023-07-13T12:10:25;25.90;59.30
14142;DHT22;7151;52.246;4.820;2023-07-13T12:13:02;25.90;59.10
14142;DHT22;7151;52.246;4.820;2023-07-13T12:18:09;26.00;58.80
14142;DHT22;7151;52.246;4.820;2023-07-13T12:20:37;26.10;58.80
14142;DHT22;7151;52.246;4.820;2023-07-13T12:23:28;26.20;58.90
14142;DHT22;7151;52.246;4.820;2023-07-13T12:25:54;26.20;58.90
14142;DHT22;7151;52.246;4.820;2023-07-13T12:28:22;26.30;58.80
14142;DHT22;7151;52.246;4.820;2023-07-13T12:30:48;26.30;58.60
14142;DHT22;7151;52.246;4.820;2023-07-13T12:33:15;26.30;58.50
14142;DHT22;7151;52.246;4.820;2023-07-13T12:35:47;26.30;58.50
14142;DHT22;7151;52.246;4.820;2023-07-13T12:38:15;26.40;58.70
14142;DHT22;7151;52.246;4.820;2023-07-13T12:40:41;26.40;59.00
14142;DHT22;7151;52.246;4.820;2023-07-13T12:43:12;26.50;59.10
14142;DHT22;7151;52.246;4.820;2023-07-13T12:45:38;26.50;59.10
14142;DHT22;7151;52.246;4.820;2023-07-13T12:48:11;26.60;59.00
14142;DHT22;7151;52.246;4.820;2023-07-13T12:50:47;26.60;58.90
14142;DHT22;7151;52.246;4.820;2023-07-13T12:53:16;26.70;58.50
14142;DHT22;7151;52.246;4.820;2023-07-13T12:55:51;26.70;58.20
14142;DHT22;7151;52.246;4.820;2023-07-13T12:58:30;26.70;58.00
14142;DHT22;7151;52.246;4.820;2023-07-13T13:00:59;26.60;57.90
14142;DHT22;7151;52.246;4.820;2023-07-13T13:06:17;26.70;57.70
14142;DHT22;7151;52.246;4.820;2023-07-13T13:08:51;26.70;57.80
14142;DHT22;7151;52.246;4.820;2023-07-13T13:11:18;26.70;57.70
14142;DHT22;7151;52.246;4.820;2023-07-13T13:13:44;26.70;57.60
14142;DHT22;7151;52.246;4.820;2023-07-13T13:18:40;26.80;57.20
14142;DHT22;7151;52.246;4.820;2023-07-13T13:21:05;26.80;57.20
14142;DHT22;7151;52.246;4.820;2023-07-13T13:23:31;26.90;57.80
14142;DHT22;7151;52.246;4.820;2023-07-13T13:25:57;26.90;57.30
14142;DHT22;7151;52.246;4.820;2023-07-13T13:28:23;26.90;57.30
14142;DHT22;7151;52.246;4.820;2023-07-13T13:30:50;26.90;57.00
14142;DHT22;7151;52.246;4.820;2023-07-13T13:33:19;27.00;56.70
14142;DHT22;7151;52.246;4.820;2023-07-13T13:35:45;27.00;56.50
14142;DHT22;7151;52.246;4.820;2023-07-13T13:38:15;27.00;56.50
14142;DHT22;7151;52.246;4.820;2023-07-13T13:40:41;27.10;56.60
14142;DHT22;7151;52.246;4.820;2023-07-13T13:45:42;27.20;56.60
14142;DHT22;7151;52.246;4.820;2023-07-13T13:48:18;27.30;56.70
14142;DHT22;7151;52.246;4.820;2023-07-13T13:50:43;27.40;56.70
14142;DHT22;7151;52.246;4.820;2023-07-13T13:53:13;27.50;56.50
14142;DHT22;7151;52.246;4.820;2023-07-13T13:55:39;27.60;56.20
14142;DHT22;7151;52.246;4.820;2023-07-13T13:58:05;27.60;56.10
14142;DHT22;7151;52.246;4.820;2023-07-13T14:00:31;27.70;55.90
14142;DHT22;7151;52.246;4.820;2023-07-13T14:02:57;27.70;56.10
14142;DHT22;7151;52.246;4.820;2023-07-13T14:05:24;27.80;56.10
14142;DHT22;7151;52.246;4.820;2023-07-13T14:07:54;28.00;56.00
14142;DHT22;7151;52.246;4.820;2023-07-13T14:10:21;28.10;55.70
14142;DHT22;7151;52.246;4.820;2023-07-13T14:12:48;28.20;55.40
14142;DHT22;7151;52.246;4.820;2023-07-13T14:15:24;28.30;55.20
14142;DHT22;7151;52.246;4.820;2023-07-13T14:17:51;28.50;55.00
14142;DHT22;7151;52.246;4.820;2023-07-13T14:20:18;28.60;55.00
14142;DHT22;7151;52.246;4.820;2023-07-13T14:22:44;28.70;54.80
14142;DHT22;7151;52.246;4.820;2023-07-13T14:25:14;28.80;54.60
14142;DHT22;7151;52.246;4.820;2023-07-13T14:27:41;28.80;54.20
14142;DHT22;7151;52.246;4.820;2023-07-13T14:30:19;28.90;54.00
14142;DHT22;7151;52.246;4.820;2023-07-13T14:32:46;29.10;53.80
14142;DHT22;7151;52.246;4.820;2023-07-13T14:35:13;29.20;53.80
14142;DHT22;7151;52.246;4.820;2023-07-13T14:37:40;29.30;53.70
14142;DHT22;7151;52.246;4.820;2023-07-13T14:40:14;29.40;53.40
14142;DHT22;7151;52.246;4.820;2023-07-13T14:42:39;29.40;53.00
14142;DHT22;7151;52.246;4.820;2023-07-13T14:45:11;29.50;53.10
14142;DHT22;7151;52.246;4.820;2023-07-13T14:47:37;29.50;52.90
14142;DHT22;7151;52.246;4.820;2023-07-13T14:50:03;29.60;52.80
14142;DHT22;7151;52.246;4.820;2023-07-13T14:52:30;29.70;52.70
14142;DHT22;7151;52.246;4.820;2023-07-13T14:54:56;29.70;52.40
14142;DHT22;7151;52.246;4.820;2023-07-13T14:57:21;29.70;52.10
14142;DHT22;7151;52.246;4.820;2023-07-13T14:59:47;29.70;52.00
14142;DHT22;7151;52.246;4.820;2023-07-13T15:02:34;29.80;52.20
14142;DHT22;7151;52.246;4.820;2023-07-13T15:05:00;29.80;52.10
14142;DHT22;7151;52.246;4.820;2023-07-13T15:07:26;29.90;52.30
14142;DHT22;7151;52.246;4.820;2023-07-13T15:09:52;29.90;51.80
14142;DHT22;7151;52.246;4.820;2023-07-13T15:12:18;30.00;51.90
14142;DHT22;7151;52.246;4.820;2023-07-13T15:14:44;30.00;51.80
14142;DHT22;7151;52.246;4.820;2023-07-13T15:19:51;30.10;51.30
14142;DHT22;7151;52.246;4.820;2023-07-13T15:22:16;30.10;51.40
14142;DHT22;7151;52.246;4.820;2023-07-13T15:24:42;30.20;51.10
14142;DHT22;7151;52.246;4.820;2023-07-13T15:27:11;30.20;51.00
14142;DHT22;7151;52.246;4.820;2023-07-13T15:29:37;30.20;50.90
14142;DHT22;7151;52.246;4.820;2023-07-13T15:32:03;30.20;51.00
14142;DHT22;7151;52.246;4.820;2023-07-13T15:34:30;30.30;50.90
14142;DHT22;7151;52.246;4.820;2023-07-13T15:36:56;30.30;50.90
14142;DHT22;7151;52.246;4.820;2023-07-13T15:39:22;30.40;51.00
14142;DHT22;7151;52.246;4.820;2023-07-13T15:41:47;30.40;50.60
14142;DHT22;7151;52.246;4.820;2023-07-13T15:44:28;30.40;50.40
14142;DHT22;7151;52.246;4.820;2023-07-13T15:46:54;30.40;50.40
14142;DHT22;7151;52.246;4.820;2023-07-13T15:49:20;30.40;50.50
14142;DHT22;7151;52.246;4.820;2023-07-13T15:51:46;30.40;50.40
14142;DHT22;7151;52.246;4.820;2023-07-13T15:54:15;30.40;50.30
14142;DHT22;7151;52.246;4.820;2023-07-13T15:56:42;30.40;50.10
14142;DHT22;7151;52.246;4.820;2023-07-13T15:59:11;30.30;50.00
14142;DHT22;7151;52.246;4.820;2023-07-13T16:01:40;30.30;50.00
14142;DHT22;7151;52.246;4.820;2023-07-13T16:04:07;30.20;49.80
14142;DHT22;7151;52.246;4.820;2023-07-13T16:06:35;30.10;49.70
14142;DHT22;7151;52.246;4.820;2023-07-13T16:09:02;30.00;49.70
14142;DHT22;7151;52.246;4.820;2023-07-13T16:11:35;30.00;49.60
14142;DHT22;7151;52.246;4.820;2023-07-13T16:14:01;29.90;50.10
14142;DHT22;7151;52.246;4.820;2023-07-13T16:16:31;29.80;49.70
14142;DHT22;7151;52.246;4.820;2023-07-13T16:18:59;29.80;49.80
14142;DHT22;7151;52.246;4.820;2023-07-13T16:21:26;29.80;49.80
14142;DHT22;7151;52.246;4.820;2023-07-13T16:23:54;29.70;49.80
14142;DHT22;7151;52.246;4.820;2023-07-13T16:26:30;29.70;49.80
14142;DHT22;7151;52.246;4.820;2023-07-13T16:29:10;29.70;49.90
14142;DHT22;7151;52.246;4.820;2023-07-13T16:31:36;29.60;49.90
14142;DHT22;7151;52.246;4.820;2023-07-13T16:34:02;29.60;49.90